Zedelgem, Belgium
Current Conditions -  °F | °C
As of 9:20 PM on Monday 26 Jan 2015 (Local Time) from EBOS Reporting Station
Broken Clouds Broken Clouds  
Wind Chill: 37°   Ceiling: 3800
Heat Index: 45°   Visibility: 6mi
Dew Point: 37°   Wind: 16mph
Humidity: 76%   Direction: 330°NNW
Pressure: 30.24"   Gusts: NA
Location:  51.14°N, 3.14°E
Report Text: EBOS 262020Z 33014KT 9999 FEW026 BKN038 07/03 Q1024 NOSIG
Loading
Personal Weather Stations






























Interactive Weather Map New forecast layout! Learn more

10-Day Weather Forecast

Advertisements
Track Severe Weather on mobile